Gambler — LELC — position and weather

sailwx.info

Track history (hours):
 
Tides and Currents Weather Stations Pressure Air Temp Water Temp Dewpoint Dewpoint Depression Visibility Wind Speed Wind Dir Waves Ship Positions

Gambler

Last reported at 2014-Jun-05 20:17 UTC. Time now 2014-Aug-01 22:30 UTC.
Position N 59°23' E 004°41'.
Warning: this ship's position is 57 days out of date.

Length 70 m; draft 6 m.

Type: Fishing. MMSI: 258412000.

Date/timePositionNaut miles runAvg speedWind from/ knotsBaromVisibWave heightAir tempDewpointWater temp
2014-Jun-05 20:17N 59°23' E 004°41'4 4.6
2014-Jun-05 19:26N 59°20' E 004°44'9 8.6
2014-Jun-05 18:26N 59°11' E 004°47'5 5.8
2014-Jun-05 17:34N 59°07' E 004°53'6 6.4
2014-Jun-05 16:33N 59°02' E 005°00'8 7.7
2014-Jun-05 15:33N 58°55' E 005°08'1211.7
2014-Jun-05 14:33N 58°45' E 005°20'1413.5
2014-Jun-05 13:33N 58°34' E 005°35'1313.7
2014-Jun-05 12:34N 58°24' E 005°53'4 4.4
2014-Jun-05 11:33N 58°27' E 005°59'0 0.1
2014-Jun-05 10:34N 58°27' E 005°59'0 0.0
2014-Jun-05 09:33N 58°27' E 005°59'0 0.0
2014-Jun-05 08:33N 58°27' E 005°59'0 0.0
2014-Jun-05 07:33N 58°27' E 005°59'0 0.0
2014-Jun-05 06:33N 58°27' E 005°59'0 0.0
2014-Jun-05 05:33N 58°27' E 005°59'3 3.3
2014-Jun-05 04:33N 58°24' E 006°00'2 1.8
2014-Jun-05 03:33N 58°22' E 005°60'5 4.8
2014-Jun-05 02:33N 58°27' E 005°59'0 0.0
2014-Jun-05 01:33N 58°27' E 005°59'0 0.0
2014-Jun-05 00:33N 58°27' E 005°59'0 0.0
2014-Jun-04 23:33N 58°27' E 005°59'0 0.0
2014-Jun-04 22:33N 58°27' E 005°59'0 0.0
2014-Jun-04 21:33N 58°27' E 005°59'0 0.0
2014-Jun-04 20:33N 58°27' E 005°59'0 0.0
2014-Jun-04 19:33N 58°27' E 005°59'0 0.0
2014-Jun-04 18:33N 58°27' E 005°59'0 0.0
2014-Jun-04 17:33N 58°27' E 005°59'0 0.0
2014-Jun-04 16:34N 58°27' E 005°59'0 0.1
2014-Jun-04 15:33N 58°27' E 005°59'0 0.0
2014-Jun-04 14:33N 58°27' E 005°59'0 0.0
2014-Jun-04 13:33N 58°27' E 005°59'4 3.8
2014-Jun-04 12:33N 58°23' E 005°57'1211.8
2014-Jun-04 11:33N 58°15' E 005°41'2811.4
2014-Jun-04 09:06N 58°03' E 004°53'611.7
2014-Jun-04 08:33N 57°60' E 004°42'  
2014-May-30 00:06N 58°02' E 005°51'611.7
2014-May-29 23:33N 58°07' E 005°55'1110.5
2014-May-29 22:32N 58°18' E 006°00'2 2.4
2014-May-29 21:34N 58°20' E 006°01'7 6.8
2014-May-29 20:31N 58°27' E 005°59'0 0.0
2014-May-29 19:31N 58°27' E 005°59'0 0.0
2014-May-29 18:31N 58°27' E 005°59'0 0.0
2014-May-29 17:31N 58°27' E 005°59'0 0.0
2014-May-29 16:31N 58°27' E 005°59'0 0.0
2014-May-29 15:31N 58°27' E 005°59'0 0.0
2014-May-29 14:31N 58°27' E 005°59'0 0.0
2014-May-29 11:31N 58°27' E 005°59'0 0.0
2014-May-29 10:31N 58°27' E 005°59'0 0.0
2014-May-29 09:31N 58°27' E 005°59'0 0.0
2014-May-29 08:31N 58°27' E 005°59'3 2.8
2014-May-29 07:33N 58°24' E 006°00'2 1.5
2014-May-29 06:34N 58°26' E 005°59'1 0.9
2014-May-29 05:31N 58°27' E 005°59'0 0.0
2014-May-29 04:34N 58°27' E 005°59'0 0.0
2014-May-29 03:52N 58°27' E 005°59'0 0.0
2014-May-29 03:34N 58°27' E 005°59'0 0.0
2014-May-29 02:33N 58°27' E 005°59'0 0.0
2014-May-29 01:33N 58°27' E 005°59'0 0.0
2014-May-29 00:33N 58°27' E 005°59'0 0.0
2014-May-28 23:33N 58°27' E 005°59'0 0.0
2014-May-28 22:33N 58°27' E 005°59'0 0.0
2014-May-28 21:33N 58°27' E 005°59'0 0.0
2014-May-28 20:33N 58°27' E 005°59'0 0.0
2014-May-28 19:33N 58°27' E 005°59'0 0.0
2014-May-28 18:33N 58°27' E 005°59'0 0.0
2014-May-28 17:33N 58°27' E 005°59'0 0.0
2014-May-28 16:33N 58°27' E 005°59'0 0.0
2014-May-28 15:33N 58°27' E 005°59'0 0.0
2014-May-28 14:33N 58°27' E 005°59'0 0.0
2014-May-28 13:33N 58°27' E 005°59'0 0.3
2014-May-28 12:33N 58°27' E 005°59'0 0.3
2014-May-28 11:33N 58°27' E 005°59'0 0.0
2014-May-28 10:32N 58°27' E 005°59'0 0.0
2014-May-28 09:32N 58°27' E 005°59'0 0.0
2014-May-28 08:32N 58°27' E 005°59'0 0.0
2014-May-28 07:32N 58°27' E 005°59'0 0.0
2014-May-28 06:32N 58°27' E 005°59'0 0.0
2014-May-28 05:32N 58°27' E 005°59'0 0.0
2014-May-28 04:32N 58°27' E 005°59'0 0.0
2014-May-28 03:32N 58°27' E 005°59'0 0.0
2014-May-27 21:02N 58°27' E 005°59'0 0.0
2014-May-27 20:32N 58°27' E 005°59'0 0.0
2014-May-27 19:32N 58°27' E 005°59'0 0.0
2014-May-27 19:02N 58°27' E 005°59'0 0.0
2014-May-27 18:32N 58°27' E 005°59'0 0.0
2014-May-27 18:02N 58°27' E 005°59'0 0.0
2014-May-27 17:32N 58°27' E 005°59'0 0.0
2014-May-27 17:02N 58°27' E 005°59'0 0.6
2014-May-27 16:31N 58°27' E 005°59'0 0.0
2014-May-27 16:04N 58°27' E 005°59'0 0.0
2014-May-27 15:31N 58°27' E 005°59'0 0.0
2014-May-27 15:04N 58°27' E 005°59'0 0.0
2014-May-27 14:31N 58°27' E 005°59'0 0.0
2014-May-27 14:04N 58°27' E 005°59'0 0.0
2014-May-27 13:31N 58°27' E 005°59'0 0.0
2014-May-27 13:04N 58°27' E 005°59'0 0.0
2014-May-27 12:31N 58°27' E 005°59'0 0.0
2014-May-27 12:04N 58°27' E 005°59'0 0.0
2014-May-27 11:31N 58°27' E 005°59'0 0.7
2014-May-27 11:04N 58°27' E 005°59'0 0.0
2014-May-27 10:31N 58°27' E 005°59'0 0.0
2014-May-27 10:04N 58°27' E 005°59'0 0.0
2014-May-27 09:31N 58°27' E 005°59'0 0.1
2014-May-27 09:04N 58°27' E 005°59'1 2.0
2014-May-27 08:31N 58°26' E 005°59'2 2.3
2014-May-27 07:33N 58°23' E 006°00'1 2.5
2014-May-27 07:04N 58°22' E 006°00'1 2.2
2014-May-27 06:34N 58°21' E 005°60'3 6.7
2014-May-27 06:05N 58°18' E 005°58'4 7.3
2014-May-27 05:34N 58°15' E 005°55'7 7.1
2014-May-27 04:31N 58°08' E 005°49'3 6.7
2014-May-27 04:04N 58°05' E 005°48'4 6.4
2014-May-27 03:31N 58°01' E 005°47'  
Track history (hours):
 
Tides and Currents Weather Stations Pressure Air Temp Water Temp Dewpoint Dewpoint Depression Visibility Wind Speed Wind Dir Waves Ship Positions

Gambler

Last reported at 2014-Jun-05 20:17 UTC. Time now 2014-Aug-01 22:30 UTC.
Position N 59°23' E 004°41'.
Warning: this ship's position is 57 days out of date.

Length 70 m; draft 6 m.

Type: Fishing. MMSI: 258412000.

Date/timePositionNaut miles runAvg speedWind from/ knotsBaromVisibWave heightAir tempDewpointWater temp
2014-Jun-05 20:17N 59°23' E 004°41'4 4.6
2014-Jun-05 19:26N 59°20' E 004°44'9 8.6
2014-Jun-05 18:26N 59°11' E 004°47'5 5.8
2014-Jun-05 17:34N 59°07' E 004°53'6 6.4
2014-Jun-05 16:33N 59°02' E 005°00'8 7.7
2014-Jun-05 15:33N 58°55' E 005°08'1211.7
2014-Jun-05 14:33N 58°45' E 005°20'1413.5
2014-Jun-05 13:33N 58°34' E 005°35'1313.7
2014-Jun-05 12:34N 58°24' E 005°53'4 4.4
2014-Jun-05 11:33N 58°27' E 005°59'0 0.1
2014-Jun-05 10:34N 58°27' E 005°59'0 0.0
2014-Jun-05 09:33N 58°27' E 005°59'0 0.0
2014-Jun-05 08:33N 58°27' E 005°59'0 0.0
2014-Jun-05 07:33N 58°27' E 005°59'0 0.0
2014-Jun-05 06:33N 58°27' E 005°59'0 0.0
2014-Jun-05 05:33N 58°27' E 005°59'3 3.3
2014-Jun-05 04:33N 58°24' E 006°00'2 1.8
2014-Jun-05 03:33N 58°22' E 005°60'5 4.8
2014-Jun-05 02:33N 58°27' E 005°59'0 0.0
2014-Jun-05 01:33N 58°27' E 005°59'0 0.0
2014-Jun-05 00:33N 58°27' E 005°59'0 0.0
2014-Jun-04 23:33N 58°27' E 005°59'0 0.0
2014-Jun-04 22:33N 58°27' E 005°59'0 0.0
2014-Jun-04 21:33N 58°27' E 005°59'0 0.0
2014-Jun-04 20:33N 58°27' E 005°59'0 0.0
2014-Jun-04 19:33N 58°27' E 005°59'0 0.0
2014-Jun-04 18:33N 58°27' E 005°59'0 0.0
2014-Jun-04 17:33N 58°27' E 005°59'0 0.0
2014-Jun-04 16:34N 58°27' E 005°59'0 0.1
2014-Jun-04 15:33N 58°27' E 005°59'0 0.0
2014-Jun-04 14:33N 58°27' E 005°59'0 0.0
2014-Jun-04 13:33N 58°27' E 005°59'4 3.8
2014-Jun-04 12:33N 58°23' E 005°57'1211.8
2014-Jun-04 11:33N 58°15' E 005°41'2811.4
2014-Jun-04 09:06N 58°03' E 004°53'611.7
2014-Jun-04 08:33N 57°60' E 004°42'  
2014-May-30 00:06N 58°02' E 005°51'611.7
2014-May-29 23:33N 58°07' E 005°55'1110.5
2014-May-29 22:32N 58°18' E 006°00'2 2.4
2014-May-29 21:34N 58°20' E 006°01'7 6.8
2014-May-29 20:31N 58°27' E 005°59'0 0.0
2014-May-29 19:31N 58°27' E 005°59'0 0.0
2014-May-29 18:31N 58°27' E 005°59'0 0.0
2014-May-29 17:31N 58°27' E 005°59'0 0.0
2014-May-29 16:31N 58°27' E 005°59'0 0.0
2014-May-29 15:31N 58°27' E 005°59'0 0.0
2014-May-29 14:31N 58°27' E 005°59'0 0.0
2014-May-29 11:31N 58°27' E 005°59'0 0.0
2014-May-29 10:31N 58°27' E 005°59'0 0.0
2014-May-29 09:31N 58°27' E 005°59'0 0.0
2014-May-29 08:31N 58°27' E 005°59'3 2.8
2014-May-29 07:33N 58°24' E 006°00'2 1.5
2014-May-29 06:34N 58°26' E 005°59'1 0.9
2014-May-29 05:31N 58°27' E 005°59'0 0.0
2014-May-29 04:34N 58°27' E 005°59'0 0.0
2014-May-29 03:52N 58°27' E 005°59'0 0.0
2014-May-29 03:34N 58°27' E 005°59'0 0.0
2014-May-29 02:33N 58°27' E 005°59'0 0.0
2014-May-29 01:33N 58°27' E 005°59'0 0.0
2014-May-29 00:33N 58°27' E 005°59'0 0.0
2014-May-28 23:33N 58°27' E 005°59'0 0.0
2014-May-28 22:33N 58°27' E 005°59'0 0.0
2014-May-28 21:33N 58°27' E 005°59'0 0.0
2014-May-28 20:33N 58°27' E 005°59'0 0.0
2014-May-28 19:33N 58°27' E 005°59'0 0.0
2014-May-28 18:33N 58°27' E 005°59'0 0.0
2014-May-28 17:33N 58°27' E 005°59'0 0.0
2014-May-28 16:33N 58°27' E 005°59'0 0.0
2014-May-28 15:33N 58°27' E 005°59'0 0.0
2014-May-28 14:33N 58°27' E 005°59'0 0.0
2014-May-28 13:33N 58°27' E 005°59'0 0.3
2014-May-28 12:33N 58°27' E 005°59'0 0.3
2014-May-28 11:33N 58°27' E 005°59'0 0.0
2014-May-28 10:32N 58°27' E 005°59'0 0.0
2014-May-28 09:32N 58°27' E 005°59'0 0.0
2014-May-28 08:32N 58°27' E 005°59'0 0.0
2014-May-28 07:32N 58°27' E 005°59'0 0.0
2014-May-28 06:32N 58°27' E 005°59'0 0.0
2014-May-28 05:32N 58°27' E 005°59'0 0.0
2014-May-28 04:32N 58°27' E 005°59'0 0.0
2014-May-28 03:32N 58°27' E 005°59'0 0.0
2014-May-27 21:02N 58°27' E 005°59'0 0.0
2014-May-27 20:32N 58°27' E 005°59'0 0.0
2014-May-27 19:32N 58°27' E 005°59'0 0.0
2014-May-27 19:02N 58°27' E 005°59'0 0.0
2014-May-27 18:32N 58°27' E 005°59'0 0.0
2014-May-27 18:02N 58°27' E 005°59'0 0.0
2014-May-27 17:32N 58°27' E 005°59'0 0.0
2014-May-27 17:02N 58°27' E 005°59'0 0.6
2014-May-27 16:31N 58°27' E 005°59'0 0.0
2014-May-27 16:04N 58°27' E 005°59'0 0.0
2014-May-27 15:31N 58°27' E 005°59'0 0.0
2014-May-27 15:04N 58°27' E 005°59'0 0.0
2014-May-27 14:31N 58°27' E 005°59'0 0.0
2014-May-27 14:04N 58°27' E 005°59'0 0.0
2014-May-27 13:31N 58°27' E 005°59'0 0.0
2014-May-27 13:04N 58°27' E 005°59'0 0.0
2014-May-27 12:31N 58°27' E 005°59'0 0.0
2014-May-27 12:04N 58°27' E 005°59'0 0.0
2014-May-27 11:31N 58°27' E 005°59'0 0.7
2014-May-27 11:04N 58°27' E 005°59'0 0.0
2014-May-27 10:31N 58°27' E 005°59'0 0.0
2014-May-27 10:04N 58°27' E 005°59'0 0.0
2014-May-27 09:31N 58°27' E 005°59'0 0.1
2014-May-27 09:04N 58°27' E 005°59'1 2.0
2014-May-27 08:31N 58°26' E 005°59'2 2.3
2014-May-27 07:33N 58°23' E 006°00'1 2.5
2014-May-27 07:04N 58°22' E 006°00'1 2.2
2014-May-27 06:34N 58°21' E 005°60'3 6.7
2014-May-27 06:05N 58°18' E 005°58'4 7.3
2014-May-27 05:34N 58°15' E 005°55'7 7.1
2014-May-27 04:31N 58°08' E 005°49'3 6.7
2014-May-27 04:04N 58°05' E 005°48'4 6.4
2014-May-27 03:31N 58°01' E 005°47'  

Dump ship's entire track history